This is the latest recevied weather packets stored in our database for station/object KB2FWP. If no packets are shown the sender has not sent any weather packets the latest 10 day(s).
| Time | Temp. | Humidity | Pressure | Rain* | Wind** | Luminosity | Snow |
|---|---|---|---|---|---|---|---|
| 1787950847 | 27.22° C | 76% | 1017 hPa | 0 mm | - | - | - |
| 1787949954 | 27.22° C | 75% | 1016.9 hPa | 0 mm | - | - | - |
| 1787949046 | 27.22° C | 75% | 1016.8 hPa | 0 mm | - | - | - |
| 1787948148 | 27.22° C | 75% | 1016.9 hPa | 0 mm | - | - | - |
| 1787947244 | 26.67° C | 76% | 1017.1 hPa | 0 mm | - | - | - |
| 1787946344 | 26.67° C | 77% | 1017.1 hPa | 0 mm | - | - | - |
| 1787945504 | 26.67° C | 77% | 1017.1 hPa | 0 mm | - | - | - |
| 1787944542 | 26.67° C | 77% | 1017.2 hPa | 0 mm | - | - | - |
| 1787943642 | 26.67° C | 79% | 1017.2 hPa | 0 mm | - | - | - |
| 1787942749 | 27.78° C | 77% | 1017.3 hPa | 0 mm | - | - | - |
| 1787941853 | 27.78° C | 78% | 1017.2 hPa | 0 mm | - | - | - |
| 1787940939 | 27.22° C | 78% | 1017.2 hPa | 0 mm | - | - | - |
| 1787940039 | 27.22° C | 79% | 1017.3 hPa | 0 mm | - | - | - |
| 1787939143 | 26.11° C | 82% | 1017.3 hPa | 0 mm | - | - | - |
| 1787938238 | 26.67° C | 80% | 1017.1 hPa | 0 mm | - | - | - |
| 1787937342 | 27.22° C | 80% | 1017.1 hPa | 0 mm | - | - | - |
| 1787936439 | 27.78° C | 80% | 1017 hPa | 0 mm | - | - | - |
| 1787935547 | 27.78° C | 79% | 1017 hPa | 0 mm | - | - | - |
| 1787934634 | 27.22° C | 81% | 1017.3 hPa | 0 mm | - | - | - |
| 1787933734 | 27.78° C | 79% | 1017.2 hPa | 0 mm | - | - | - |
| 1787932836 | 27.22° C | 80% | 1017.3 hPa | 0 mm | - | - | - |
| 1787931930 | 26.67° C | 82% | 1017.4 hPa | 0 mm | - | - | - |
| 1787931033 | 26.67° C | 83% | 1017.5 hPa | 0 mm | - | - | - |
| 1787930125 | 26.11° C | 84% | 1017.6 hPa | 0 mm | - | - | - |
| 1787929229 | 25.56° C | 86% | 1017.8 hPa | 0 mm | - | - | - |
* Rain latest hour (hover to see other rain measurements)
** Current wind speed in m/s (hover to see current wind gust speed)